createdAt,value
2016-05-11T00:00:54.871Z,1004.01
2016-05-11T00:01:51.811Z,1003.99
2016-05-11T00:02:51.986Z,1003.97
2016-05-11T00:03:51.723Z,1003.98
2016-05-11T00:04:51.897Z,1003.9
2016-05-11T00:05:51.634Z,1003.9
2016-05-11T00:06:51.575Z,1003.9
2016-05-11T00:07:51.546Z,1003.88
2016-05-11T00:08:51.503Z,1003.91
2016-05-11T00:09:51.442Z,1003.94
2016-05-11T00:10:51.413Z,1003.93
2016-05-11T00:11:51.355Z,1003.96
2016-05-11T00:12:51.310Z,1003.93
2016-05-11T00:13:54.312Z,1003.98
2016-05-11T00:14:54.238Z,1003.96
2016-05-11T00:15:51.177Z,1003.92
2016-05-11T00:16:51.133Z,1003.94
2016-05-11T00:17:51.073Z,1003.95
2016-05-11T00:18:51.248Z,1003.98
2016-05-11T00:19:51.001Z,1003.96
2016-05-11T00:20:50.956Z,1003.96
2016-05-11T00:21:50.912Z,1003.96
2016-05-11T00:22:50.852Z,1003.94
2016-05-11T00:23:50.807Z,1003.94
2016-05-11T00:24:50.780Z,1003.95
2016-05-11T00:25:50.720Z,1003.99
2016-05-11T00:26:50.676Z,1003.95
2016-05-11T00:27:50.632Z,1003.97
2016-05-11T00:28:50.587Z,1003.95
2016-05-11T00:29:50.543Z,1003.96
2016-05-11T00:30:53.514Z,1003.96
2016-05-11T00:31:53.454Z,1003.93
2016-05-11T00:32:50.411Z,1003.98
2016-05-11T00:33:50.367Z,1003.92
2016-05-11T00:34:50.322Z,1003.97
2016-05-11T00:35:50.262Z,1003.94
2016-05-11T00:36:50.234Z,1003.95
2016-05-11T00:37:50.189Z,1003.93
2016-05-11T00:38:50.130Z,1003.97
2016-05-11T00:39:50.086Z,1003.96
2016-05-11T00:40:50.041Z,1003.95
2016-05-11T00:41:52.997Z,1003.98
2016-05-11T00:42:52.968Z,1004.01
2016-05-11T00:43:52.925Z,1004.01
2016-05-11T00:44:49.864Z,1003.99
2016-05-11T00:45:52.821Z,1004.01
2016-05-11T00:46:49.777Z,1003.98
2016-05-11T00:47:49.716Z,1003.93
2016-05-11T00:48:49.688Z,1003.92
2016-05-11T00:49:49.644Z,1003.99
2016-05-11T00:50:49.584Z,1003.98
2016-05-11T00:51:52.587Z,1004
2016-05-11T00:52:49.495Z,1003.97
2016-05-11T00:53:49.451Z,1003.98
2016-05-11T00:54:49.407Z,1004.03
2016-05-11T00:55:49.363Z,1004.01
2016-05-11T00:56:49.318Z,1004.06
2016-05-11T00:57:49.274Z,1004.03
2016-05-11T00:58:49.231Z,1004.01
2016-05-11T00:59:49.201Z,1004.06
2016-05-11T01:00:49.142Z,1004.02
2016-05-11T01:01:49.081Z,1004.05
2016-05-11T01:02:49.037Z,1004.02
2016-05-11T01:03:48.994Z,1004.01
2016-05-11T01:04:48.965Z,1004.05
2016-05-11T01:05:51.937Z,1004.02
2016-05-11T01:06:48.861Z,1004.06
2016-05-11T01:07:48.833Z,1004.02
2016-05-11T01:08:48.772Z,1004.01
2016-05-11T01:09:48.713Z,1004.04
2016-05-11T01:10:48.684Z,1004.03
2016-05-11T01:11:48.641Z,1004.05
2016-05-11T01:12:48.597Z,1004.02
2016-05-11T01:13:48.536Z,1004.02
2016-05-11T01:14:48.508Z,1003.99
2016-05-11T01:15:48.447Z,1003.96
2016-05-11T01:16:51.420Z,1003.98
2016-05-11T01:17:48.562Z,1003.98
2016-05-11T01:18:48.315Z,1003.99
2016-05-11T01:19:48.490Z,1004
2016-05-11T01:20:48.227Z,1003.94
2016-05-11T01:21:48.183Z,1003.94
2016-05-11T01:22:48.138Z,1003.96
2016-05-11T01:23:48.094Z,1003.98
2016-05-11T01:24:48.034Z,1003.97
2016-05-11T01:25:48.007Z,1003.96
2016-05-11T01:26:47.962Z,1003.91
2016-05-11T01:27:47.902Z,1003.91
2016-05-11T01:28:47.890Z,1003.91
2016-05-11T01:29:47.814Z,1003.89
2016-05-11T01:30:50.769Z,1003.89
2016-05-11T01:31:47.725Z,1003.89
2016-05-11T01:32:47.682Z,1003.86
2016-05-11T01:33:47.840Z,1003.88
2016-05-11T01:34:50.593Z,1003.84
2016-05-11T01:35:47.533Z,1003.86
2016-05-11T01:36:47.489Z,1003.81
2016-05-11T01:37:47.444Z,1003.85
2016-05-11T01:38:47.401Z,1003.85
2016-05-11T01:39:47.356Z,1003.87
2016-05-11T01:40:47.343Z,1003.85
2016-05-11T01:41:47.268Z,1003.89
2016-05-11T01:42:47.411Z,1003.84
2016-05-11T01:43:50.180Z,1003.85
2016-05-11T01:44:47.136Z,1003.86
2016-05-11T01:45:50.138Z,1003.86
2016-05-11T01:46:47.234Z,1003.84
2016-05-11T01:47:47.002Z,1003.8
2016-05-11T01:48:46.944Z,1003.82
2016-05-11T01:49:46.899Z,1003.79
2016-05-11T01:50:46.855Z,1003.79
2016-05-11T01:51:46.810Z,1003.74
2016-05-11T01:52:49.782Z,1003.78
2016-05-11T01:53:46.722Z,1003.79
2016-05-11T01:54:46.662Z,1003.73
2016-05-11T01:55:46.618Z,1003.77
2016-05-11T01:56:46.808Z,1003.77
2016-05-11T01:57:46.608Z,1003.78
2016-05-11T01:58:46.485Z,1003.75
2016-05-11T01:59:46.473Z,1003.75
2016-05-11T02:00:46.397Z,1003.73
2016-05-11T02:01:46.400Z,1003.75
2016-05-11T02:02:46.308Z,1003.72
2016-05-11T02:03:46.265Z,1003.72
2016-05-11T02:04:46.221Z,1003.72
2016-05-11T02:05:46.379Z,1003.74
2016-05-11T02:06:49.131Z,1003.71
2016-05-11T02:07:46.072Z,1003.68
2016-05-11T02:08:49.044Z,1003.69
2016-05-11T02:09:45.983Z,1003.66
2016-05-11T02:10:45.924Z,1003.69
2016-05-11T02:11:45.895Z,1003.66
2016-05-11T02:12:45.851Z,1003.66
2016-05-11T02:13:48.807Z,1003.69
2016-05-11T02:14:48.763Z,1003.67
2016-05-11T02:15:49.203Z,1003.71
2016-05-11T02:16:48.675Z,1003.67
2016-05-11T02:17:48.630Z,1003.74
2016-05-11T02:18:45.774Z,1003.68
2016-05-11T02:19:45.527Z,1003.64
2016-05-11T02:20:45.482Z,1003.63
2016-05-11T02:21:45.438Z,1003.66
2016-05-11T02:22:45.378Z,1003.69
2016-05-11T02:23:48.349Z,1003.66
2016-05-11T02:24:48.305Z,1003.64
2016-05-11T02:25:48.479Z,1003.66
2016-05-11T02:26:45.217Z,1003.64
2016-05-11T02:27:48.173Z,1003.69
2016-05-11T02:28:48.129Z,1003.63
2016-05-11T02:29:45.068Z,1003.63
2016-05-11T02:30:45.587Z,1003.61
2016-05-11T02:31:44.981Z,1003.66
2016-05-11T02:32:44.921Z,1003.61
2016-05-11T02:33:44.907Z,1003.63
2016-05-11T02:34:45.035Z,1003.59
2016-05-11T02:35:44.787Z,1003.62
2016-05-11T02:36:44.759Z,1003.62
2016-05-11T02:37:44.700Z,1003.63
2016-05-11T02:38:44.656Z,1003.62
2016-05-11T02:39:44.612Z,1003.64
2016-05-11T02:40:44.567Z,1003.6
2016-05-11T02:41:44.508Z,1003.61
2016-05-11T02:42:44.463Z,1003.59
2016-05-11T02:43:44.419Z,1003.61
2016-05-11T02:44:44.374Z,1003.57
2016-05-11T02:45:44.409Z,1003.59
2016-05-11T02:46:44.286Z,1003.59
2016-05-11T02:47:47.242Z,1003.61
2016-05-11T02:48:44.198Z,1003.61
2016-05-11T02:49:44.138Z,1003.57
2016-05-11T02:50:44.094Z,1003.57
2016-05-11T02:51:44.050Z,1003.61
2016-05-11T02:52:44.208Z,1003.57
2016-05-11T02:53:43.961Z,1003.58
2016-05-11T02:54:43.918Z,1003.58
2016-05-11T02:55:46.873Z,1003.56
2016-05-11T02:56:43.829Z,1003.55
2016-05-11T02:57:43.784Z,1003.53
2016-05-11T02:58:46.741Z,1003.55
2016-05-11T02:59:46.697Z,1003.5
2016-05-11T03:00:43.652Z,1003.53
2016-05-11T03:01:43.592Z,1003.52
2016-05-11T03:02:43.548Z,1003.53
2016-05-11T03:03:43.503Z,1003.53
2016-05-11T03:04:43.444Z,1003.53
2016-05-11T03:05:43.401Z,1003.51
2016-05-11T03:06:46.778Z,1003.52
2016-05-11T03:07:46.328Z,1003.49
2016-05-11T03:08:43.267Z,1003.48
2016-05-11T03:09:46.223Z,1003.46
2016-05-11T03:10:43.194Z,1003.46
2016-05-11T03:11:43.134Z,1003.46
2016-05-11T03:12:43.075Z,1003.47
2016-05-11T03:13:43.047Z,1003.48
2016-05-11T03:14:42.986Z,1003.46
2016-05-11T03:15:42.942Z,1003.48
2016-05-11T03:16:45.914Z,1003.51
2016-05-11T03:17:42.855Z,1003.48
2016-05-11T03:18:42.794Z,1003.47
2016-05-11T03:19:45.766Z,1003.43
2016-05-11T03:20:42.705Z,1003.45
2016-05-11T03:21:42.661Z,1003.43
2016-05-11T03:22:42.618Z,1003.43
2016-05-11T03:23:42.573Z,1003.39
2016-05-11T03:24:42.530Z,1003.4
2016-05-11T03:25:42.469Z,1003.41
2016-05-11T03:26:42.441Z,1003.39
2016-05-11T03:27:42.382Z,1003.41
2016-05-11T03:28:42.337Z,1003.37
2016-05-11T03:29:45.307Z,1003.39
2016-05-11T03:30:42.255Z,1003.39
2016-05-11T03:31:42.250Z,1003.33
2016-05-11T03:32:42.245Z,1003.3
2016-05-11T03:33:42.241Z,1003.35
2016-05-11T03:34:42.236Z,1003.3
2016-05-11T03:35:42.212Z,1003.34
2016-05-11T03:36:45.198Z,1003.34
2016-05-11T03:37:45.168Z,1003.28
2016-05-11T03:38:45.122Z,1003.32
2016-05-11T03:39:42.092Z,1003.28
2016-05-11T03:40:42.061Z,1003.3
2016-05-11T03:41:42.022Z,1003.33
2016-05-11T03:42:41.966Z,1003.3
2016-05-11T03:43:41.927Z,1003.31
2016-05-11T03:44:41.888Z,1003.32
2016-05-11T03:45:41.864Z,1003.3
2016-05-11T03:46:44.807Z,1003.31
2016-05-11T03:47:44.779Z,1003.33
2016-05-11T03:48:41.721Z,1003.29
2016-05-11T03:49:41.679Z,1003.33
2016-05-11T03:50:44.653Z,1003.29
2016-05-11T03:51:41.577Z,1003.3
2016-05-11T03:52:41.534Z,1003.29
2016-05-11T03:53:44.490Z,1003.26
2016-05-11T03:54:41.430Z,1003.24
2016-05-11T03:55:41.402Z,1003.26
2016-05-11T03:56:41.343Z,1003.26
2016-05-11T03:57:44.314Z,1003.25
2016-05-11T03:58:41.255Z,1003.27
2016-05-11T03:59:41.414Z,1003.29
2016-05-11T04:00:41.153Z,1003.24
2016-05-11T04:01:41.123Z,1003.3
2016-05-11T04:02:41.267Z,1003.28
2016-05-11T04:03:41.036Z,1003.3
2016-05-11T04:04:40.991Z,1003.29
2016-05-11T04:05:43.946Z,1003.28
2016-05-11T04:06:43.902Z,1003.25
2016-05-11T04:07:40.843Z,1003.25
2016-05-11T04:08:40.799Z,1003.26
2016-05-11T04:09:40.755Z,1003.28
2016-05-11T04:10:40.710Z,1003.25
2016-05-11T04:11:40.649Z,1003.25
2016-05-11T04:12:40.605Z,1003.24
2016-05-11T04:13:40.563Z,1003.22
2016-05-11T04:14:40.518Z,1003.19
2016-05-11T04:15:43.474Z,1003.19
2016-05-11T04:16:40.429Z,1003.18
2016-05-11T04:17:40.369Z,1003.16
2016-05-11T04:18:40.326Z,1003.16
2016-05-11T04:19:40.281Z,1003.13
2016-05-11T04:20:40.237Z,1003.14
2016-05-11T04:21:40.193Z,1003.1
2016-05-11T04:22:43.148Z,1003.11
2016-05-11T04:23:40.089Z,1003.14
2016-05-11T04:24:40.045Z,1003.11
2016-05-11T04:25:43.016Z,1003.14
2016-05-11T04:26:39.957Z,1003.12
2016-05-11T04:27:39.912Z,1003.11
2016-05-11T04:28:39.868Z,1003.07
2016-05-11T04:29:39.823Z,1003.07
2016-05-11T04:30:39.779Z,1003.09
2016-05-11T04:31:42.719Z,1003
2016-05-11T04:32:42.676Z,1003
2016-05-11T04:33:42.834Z,1003.03
2016-05-11T04:34:39.586Z,1003.05
2016-05-11T04:35:39.542Z,1003.05
2016-05-11T04:36:39.483Z,1003.03
2016-05-11T04:37:39.454Z,1003.03
2016-05-11T04:38:39.395Z,1003.07
2016-05-11T04:39:39.350Z,1003.03
2016-05-11T04:40:42.338Z,1003.04
2016-05-11T04:41:42.278Z,1003.06
2016-05-11T04:42:42.218Z,1003.04
2016-05-11T04:43:39.158Z,1003
2016-05-11T04:44:39.317Z,1003.04
2016-05-11T04:45:39.085Z,1003.04
2016-05-11T04:46:39.026Z,1003.05
2016-05-11T04:47:38.982Z,1003.09
2016-05-11T04:48:38.921Z,1003.12
2016-05-11T04:49:38.877Z,1003.09
2016-05-11T04:50:38.833Z,1003.11
2016-05-11T04:51:41.804Z,1003.15
2016-05-11T04:52:38.745Z,1003.15
2016-05-11T04:53:38.701Z,1003.15
2016-05-11T04:54:38.656Z,1003.16
2016-05-11T04:55:38.597Z,1003.17
2016-05-11T04:56:38.552Z,1003.15
2016-05-11T04:57:38.524Z,1003.14
2016-05-11T04:58:38.464Z,1003.14
2016-05-11T04:59:38.420Z,1003.13
2016-05-11T05:00:38.406Z,1003.11
2016-05-11T05:01:38.317Z,1003.12
2016-05-11T05:02:38.287Z,1003.1
2016-05-11T05:03:38.228Z,1003.12
2016-05-11T05:04:38.184Z,1003.11
2016-05-11T05:05:38.139Z,1003.08
2016-05-11T05:06:38.095Z,1003.07
2016-05-11T05:07:41.050Z,1003.12
2016-05-11T05:08:41.006Z,1003.1
2016-05-11T05:09:40.978Z,1003.14
2016-05-11T05:10:37.919Z,1003.09
2016-05-11T05:11:37.874Z,1003.11
2016-05-11T05:12:38.221Z,1003.06
2016-05-11T05:13:37.770Z,1003.13
2016-05-11T05:14:37.726Z,1003.08
2016-05-11T05:15:37.682Z,1003.17
2016-05-11T05:16:37.638Z,1003.13
2016-05-11T05:17:37.593Z,1003.14
2016-05-11T05:18:37.533Z,1003.12
2016-05-11T05:19:37.490Z,1003.16
2016-05-11T05:20:37.460Z,1003.14
2016-05-11T05:21:37.401Z,1003.16
2016-05-11T05:22:37.357Z,1003.21
2016-05-11T05:23:37.296Z,1003.21
2016-05-11T05:24:37.269Z,1003.18
2016-05-11T05:25:37.208Z,1003.24
2016-05-11T05:26:37.165Z,1003.18
2016-05-11T05:27:40.136Z,1003.19
2016-05-11T05:28:37.060Z,1003.2
2016-05-11T05:29:40.047Z,1003.18
2016-05-11T05:30:37.191Z,1003.22
2016-05-11T05:31:39.943Z,1003.17
2016-05-11T05:32:39.915Z,1003.17
2016-05-11T05:33:36.840Z,1003.15
2016-05-11T05:34:36.795Z,1003.18
2016-05-11T05:35:39.751Z,1003.15
2016-05-11T05:36:36.706Z,1003.2
2016-05-11T05:37:36.850Z,1003.19
2016-05-11T05:38:36.603Z,1003.15
2016-05-11T05:39:36.559Z,1003.16
2016-05-11T05:40:36.514Z,1003.13
2016-05-11T05:41:36.470Z,1003.15
2016-05-11T05:42:36.427Z,1003.13
2016-05-11T05:43:36.382Z,1003.16
2016-05-11T05:44:36.322Z,1003.15
2016-05-11T05:45:36.278Z,1003.13
2016-05-11T05:46:36.233Z,1003.13
2016-05-11T05:47:36.190Z,1003.11
2016-05-11T05:48:36.146Z,1003.14
2016-05-11T05:49:39.102Z,1003.06
2016-05-11T05:50:36.057Z,1003.1
2016-05-11T05:51:35.997Z,1003.07
2016-05-11T05:52:35.953Z,1003.09
2016-05-11T05:53:35.909Z,1003.07
2016-05-11T05:54:35.865Z,1003.09
2016-05-11T05:55:38.836Z,1003.07
2016-05-11T05:56:38.776Z,1003.11
2016-05-11T05:57:35.748Z,1003.1
2016-05-11T05:58:35.687Z,1003.1
2016-05-11T05:59:38.643Z,1003.08
2016-05-11T06:00:36.053Z,1003.06
2016-05-11T06:01:38.555Z,1003.07
2016-05-11T06:02:35.496Z,1003.07
2016-05-11T06:03:35.451Z,1003.06
2016-05-11T06:04:35.407Z,1003.06
2016-05-11T06:05:35.363Z,1003.06
2016-05-11T06:06:38.319Z,1003.06
2016-05-11T06:07:35.275Z,1003.1
2016-05-11T06:08:35.214Z,1003.11
2016-05-11T06:09:38.187Z,1003.12
2016-05-11T06:10:35.127Z,1003.12
2016-05-11T06:11:35.082Z,1003.07
2016-05-11T06:12:38.054Z,1003.08
2016-05-11T06:13:34.994Z,1003.09
2016-05-11T06:14:34.950Z,1003.09
2016-05-11T06:15:34.905Z,1003.05
2016-05-11T06:16:34.861Z,1003.04
2016-05-11T06:17:34.817Z,1003.08
2016-05-11T06:18:34.773Z,1003.03
2016-05-11T06:19:34.726Z,1003.04
2016-05-11T06:20:34.667Z,1003.06
2016-05-11T06:21:35.952Z,1003.05
2016-05-11T06:22:34.577Z,1003.06
2016-05-11T06:23:35.316Z,1003.05
2016-05-11T06:24:38.101Z,1003.05
2016-05-11T06:25:34.445Z,1003.05
2016-05-11T06:26:34.401Z,1003.02
2016-05-11T06:27:34.716Z,1002.99
2016-05-11T06:28:34.719Z,1002.98
2016-05-11T06:29:34.269Z,1003.04
2016-05-11T06:30:34.240Z,1003.01
2016-05-11T06:31:34.368Z,1003
2016-05-11T06:32:34.136Z,1003.01
2016-05-11T06:33:34.077Z,1002.99
2016-05-11T06:34:34.048Z,1003.01
2016-05-11T06:35:37.004Z,1003.02
2016-05-11T06:36:36.960Z,1002.97
2016-05-11T06:37:33.900Z,1002.98
2016-05-11T06:38:33.856Z,1002.98
2016-05-11T06:39:33.811Z,1002.96
2016-05-11T06:40:33.767Z,1002.99
2016-05-11T06:41:33.723Z,1002.99
2016-05-11T06:42:33.678Z,1002.99
2016-05-11T06:43:36.634Z,1002.94
2016-05-11T06:44:33.590Z,1002.95
2016-05-11T06:45:33.546Z,1002.94
2016-05-11T06:46:36.518Z,1002.95
2016-05-11T06:47:36.458Z,1002.98
2016-05-11T06:48:36.414Z,1002.94
2016-05-11T06:49:36.385Z,1002.96
2016-05-11T06:50:36.325Z,1002.9
2016-05-11T06:51:33.266Z,1002.95
2016-05-11T06:52:33.237Z,1002.94
2016-05-11T06:53:33.177Z,1002.97
2016-05-11T06:54:33.133Z,1002.96
2016-05-11T06:55:33.088Z,1002.96
2016-05-11T06:56:33.044Z,1002.91
2016-05-11T06:57:33.001Z,1002.93
2016-05-11T06:58:36.174Z,1002.93
2016-05-11T06:59:32.912Z,1002.96
2016-05-11T07:00:33.024Z,1002.86
2016-05-11T07:01:32.902Z,1002.9
2016-05-11T07:02:32.780Z,1002.85
2016-05-11T07:03:32.734Z,1002.84
2016-05-11T07:04:35.691Z,1002.9
2016-05-11T07:05:32.648Z,1002.86
2016-05-11T07:06:32.603Z,1002.86
2016-05-11T07:07:32.559Z,1002.83
2016-05-11T07:08:32.514Z,1002.86
2016-05-11T07:09:32.470Z,1002.85
2016-05-11T07:10:32.426Z,1002.84
2016-05-11T07:11:32.381Z,1002.81
2016-05-11T07:12:32.337Z,1002.84
2016-05-11T07:13:32.293Z,1002.82
2016-05-11T07:14:32.234Z,1002.8
2016-05-11T07:15:32.205Z,1002.8
2016-05-11T07:16:32.145Z,1002.87
2016-05-11T07:17:32.319Z,1002.86
2016-05-11T07:18:32.072Z,1002.85
2016-05-11T07:19:32.028Z,1002.87
2016-05-11T07:20:34.983Z,1002.88
2016-05-11T07:21:34.940Z,1002.87
2016-05-11T07:22:35.099Z,1002.85
2016-05-11T07:23:31.851Z,1002.82
2016-05-11T07:24:31.807Z,1002.81
2016-05-11T07:25:31.747Z,1002.86
2016-05-11T07:26:31.749Z,1002.86
2016-05-11T07:27:31.675Z,1002.88
2016-05-11T07:28:31.631Z,1002.88
2016-05-11T07:29:31.587Z,1002.92
2016-05-11T07:30:31.542Z,1002.9
2016-05-11T07:31:31.498Z,1002.9
2016-05-11T07:32:31.454Z,1002.86
2016-05-11T07:33:31.409Z,1002.91
2016-05-11T07:34:31.365Z,1002.87
2016-05-11T07:35:31.321Z,1002.86
2016-05-11T07:36:34.277Z,1002.84
2016-05-11T07:37:34.233Z,1002.85
2016-05-11T07:38:31.189Z,1002.82
2016-05-11T07:39:31.348Z,1002.82
2016-05-11T07:40:31.117Z,1002.82
2016-05-11T07:41:31.072Z,1002.81
2016-05-11T07:42:31.106Z,1002.84
2016-05-11T07:43:30.968Z,1002.83
2016-05-11T07:44:33.939Z,1002.83
2016-05-11T07:45:30.880Z,1002.82
2016-05-11T07:46:30.836Z,1002.84
2016-05-11T07:47:30.792Z,1002.83
2016-05-11T07:48:30.747Z,1002.83
2016-05-11T07:49:30.703Z,1002.87
2016-05-11T07:50:30.658Z,1002.84
2016-05-11T07:51:30.614Z,1002.88
2016-05-11T07:52:30.585Z,1002.84
2016-05-11T07:53:33.541Z,1002.87
2016-05-11T07:54:30.483Z,1002.87
2016-05-11T07:55:30.453Z,1002.88
2016-05-11T07:56:33.425Z,1002.9
2016-05-11T07:57:30.365Z,1002.91
2016-05-11T07:58:30.304Z,1002.89
2016-05-11T07:59:30.261Z,1002.91
2016-05-11T08:00:30.624Z,1002.94
2016-05-11T08:01:33.219Z,1002.89
2016-05-11T08:02:30.144Z,1002.88
2016-05-11T08:03:30.099Z,1002.83
2016-05-11T08:04:30.118Z,1002.87
2016-05-11T08:05:33.074Z,1002.83
2016-05-11T08:06:30.171Z,1002.81
2016-05-11T08:07:29.939Z,1002.81
2016-05-11T08:08:29.879Z,1002.78
2016-05-11T08:09:29.834Z,1002.79
2016-05-11T08:10:29.790Z,1002.75
2016-05-11T08:11:32.746Z,1002.76
2016-05-11T08:12:32.703Z,1002.74
2016-05-11T08:13:32.736Z,1002.71
2016-05-11T08:14:29.614Z,1002.72
2016-05-11T08:15:29.836Z,1002.72
2016-05-11T08:16:29.541Z,1002.71
2016-05-11T08:17:32.497Z,1002.72
2016-05-11T08:18:29.437Z,1002.78
2016-05-11T08:19:29.392Z,1002.77
2016-05-11T08:20:29.349Z,1002.78
2016-05-11T08:21:29.305Z,1002.77
2016-05-11T08:22:29.322Z,1002.77
2016-05-11T08:23:29.232Z,1002.8
2016-05-11T08:24:29.203Z,1002.78
2016-05-11T08:25:29.144Z,1002.77
2016-05-11T08:26:29.099Z,1002.77
2016-05-11T08:27:29.055Z,1002.74
2016-05-11T08:28:29.011Z,1002.73
2016-05-11T08:29:28.966Z,1002.71
2016-05-11T08:30:28.922Z,1002.71
2016-05-11T08:31:28.879Z,1002.68
2016-05-11T08:32:28.834Z,1002.67
2016-05-11T08:33:28.790Z,1002.64
2016-05-11T08:34:28.762Z,1002.66
2016-05-11T08:35:28.701Z,1002.66
2016-05-11T08:36:31.673Z,1002.69
2016-05-11T08:37:28.613Z,1002.62
2016-05-11T08:38:28.584Z,1002.62
2016-05-11T08:39:28.540Z,1002.58
2016-05-11T08:40:28.496Z,1002.56
2016-05-11T08:41:28.468Z,1002.5
2016-05-11T08:42:28.439Z,1002.53
2016-05-11T08:43:28.379Z,1002.49
2016-05-11T08:44:28.320Z,1002.49
2016-05-11T08:45:28.291Z,1002.5
2016-05-11T08:46:28.231Z,1002.47
2016-05-11T08:47:28.187Z,1002.43
2016-05-11T08:48:28.142Z,1002.42
2016-05-11T08:49:28.490Z,1002.44
2016-05-11T08:50:28.055Z,1002.42
2016-05-11T08:51:28.025Z,1002.43
2016-05-11T08:52:27.981Z,1002.4
2016-05-11T08:53:27.938Z,1002.39
2016-05-11T08:54:27.893Z,1002.37
2016-05-11T08:55:27.849Z,1002.37
2016-05-11T08:56:27.805Z,1002.38
2016-05-11T08:57:30.792Z,1002.37
2016-05-11T08:58:27.716Z,1002.35
2016-05-11T08:59:27.672Z,1002.36
2016-05-11T09:00:30.660Z,1002.33
2016-05-11T09:01:27.599Z,1002.32
2016-05-11T09:02:30.555Z,1002.29
2016-05-11T09:03:30.511Z,1002.32
2016-05-11T09:04:27.468Z,1002.28
2016-05-11T09:05:30.423Z,1002.26
2016-05-11T09:06:27.581Z,1002.27
2016-05-11T09:07:27.335Z,1002.23
2016-05-11T09:08:27.306Z,1002.19
2016-05-11T09:09:27.245Z,1002.23
2016-05-11T09:10:30.218Z,1002.23
2016-05-11T09:11:27.173Z,1002.21
2016-05-11T09:12:27.129Z,1002.21
2016-05-11T09:13:27.085Z,1002.2
2016-05-11T09:14:27.040Z,1002.19
2016-05-11T09:15:27.200Z,1002.21
2016-05-11T09:16:26.952Z,1002.15
2016-05-11T09:17:26.908Z,1002.19
2016-05-11T09:18:26.880Z,1002.17
2016-05-11T09:19:26.819Z,1002.21
2016-05-11T09:20:26.776Z,1002.2
2016-05-11T09:21:26.747Z,1002.2
2016-05-11T09:22:26.703Z,1002.18
2016-05-11T09:23:26.659Z,1002.19
2016-05-11T09:24:26.630Z,1002.21
2016-05-11T09:25:26.570Z,1002.17
2016-05-11T09:26:26.542Z,1002.16
2016-05-11T09:27:26.482Z,1002.13
2016-05-11T09:28:26.453Z,1002.09
2016-05-11T09:29:26.441Z,1002.09
2016-05-11T09:30:26.380Z,1002.09
2016-05-11T09:31:26.321Z,1002.12
2016-05-11T09:32:26.277Z,1002.09
2016-05-11T09:33:29.232Z,1002.07
2016-05-11T09:34:26.204Z,1002.05
2016-05-11T09:35:26.144Z,1002
2016-05-11T09:36:26.115Z,1001.97
2016-05-11T09:37:26.071Z,1001.99
2016-05-11T09:38:26.026Z,1001.97
2016-05-11T09:39:25.983Z,1001.93
2016-05-11T09:40:25.940Z,1001.9
2016-05-11T09:41:25.895Z,1001.93
2016-05-11T09:42:25.866Z,1001.91
2016-05-11T09:43:25.822Z,1001.96
2016-05-11T09:44:25.762Z,1001.94
2016-05-11T09:45:25.717Z,1001.96
2016-05-11T09:46:28.892Z,1001.93
2016-05-11T09:47:25.645Z,1001.91
2016-05-11T09:48:28.617Z,1001.93
2016-05-11T09:49:25.759Z,1001.91
2016-05-11T09:50:25.512Z,1001.89
2016-05-11T09:51:25.469Z,1001.91
2016-05-11T09:52:25.440Z,1001.92
2016-05-11T09:53:25.395Z,1001.86
2016-05-11T09:54:25.352Z,1001.93
2016-05-11T09:55:25.322Z,1001.89
2016-05-11T09:56:25.544Z,1001.91
2016-05-11T09:57:25.219Z,1001.91
2016-05-11T09:58:25.191Z,1001.85
2016-05-11T09:59:28.177Z,1001.8
2016-05-11T10:00:25.102Z,1001.84
2016-05-11T10:01:28.073Z,1001.83
2016-05-11T10:02:25.216Z,1001.83
2016-05-11T10:03:24.969Z,1001.81
2016-05-11T10:04:24.924Z,1001.82
2016-05-11T10:05:24.928Z,1001.79
2016-05-11T10:06:24.852Z,1001.73
2016-05-11T10:07:24.824Z,1001.72
2016-05-11T10:08:24.765Z,1001.75
2016-05-11T10:09:24.751Z,1001.65
2016-05-11T10:10:24.691Z,1001.71
2016-05-11T10:11:24.835Z,1001.74
2016-05-11T10:12:24.603Z,1001.73
2016-05-11T10:13:24.559Z,1001.74
2016-05-11T10:14:24.515Z,1001.67
2016-05-11T10:15:24.704Z,1001.68
2016-05-11T10:16:27.442Z,1001.65
2016-05-11T10:17:24.398Z,1001.67
2016-05-11T10:18:24.353Z,1001.67
2016-05-11T10:19:24.310Z,1001.62
2016-05-11T10:20:24.265Z,1001.62
2016-05-11T10:21:24.221Z,1001.63
2016-05-11T10:22:24.192Z,1001.66
2016-05-11T10:23:27.147Z,1001.65
2016-05-11T10:24:24.308Z,1001.7
2016-05-11T10:25:24.263Z,1001.67
2016-05-11T10:26:27.219Z,1001.65
2016-05-11T10:27:23.972Z,1001.68
2016-05-11T10:28:23.927Z,1001.63
2016-05-11T10:29:23.883Z,1001.62
2016-05-11T10:30:24.120Z,1001.57
2016-05-11T10:32:57.535Z,1001.59
2016-05-11T10:33:57.866Z,1001.54
2016-05-11T10:34:57.462Z,1001.53
2016-05-11T10:35:57.481Z,1001.54
2016-05-11T10:36:57.373Z,1001.52
2016-05-11T10:37:57.424Z,1001.52
2016-05-11T10:38:57.285Z,1001.46
2016-05-11T10:39:57.257Z,1001.48
2016-05-11T10:40:57.213Z,1001.46
2016-05-11T10:41:57.185Z,1001.45
2016-05-11T10:42:57.124Z,1001.45
2016-05-11T10:43:57.079Z,1001.45
2016-05-11T10:44:57.114Z,1001.41
2016-05-11T10:45:57.023Z,1001.36
2016-05-11T10:46:56.962Z,1001.38
2016-05-11T10:47:59.950Z,1001.33
2016-05-11T10:49:00.890Z,1001.33
2016-05-11T10:49:56.831Z,1001.35
2016-05-11T10:50:57.020Z,1001.29
2016-05-11T10:51:59.773Z,1001.23
2016-05-11T10:52:56.711Z,1001.28
2016-05-11T10:53:56.667Z,1001.24
2016-05-11T10:54:56.639Z,1001.19
2016-05-11T10:55:56.594Z,1001.16
2016-05-11T10:56:56.534Z,1001.17
2016-05-11T10:57:56.489Z,1001.17
2016-05-11T10:58:59.511Z,1001.14
2016-05-11T10:59:56.417Z,1001.14
2016-05-11T11:00:56.451Z,1001.15
2016-05-11T11:01:56.344Z,1001.13
2016-05-11T11:02:56.300Z,1001.12
2016-05-11T11:03:56.928Z,1001.13
2016-05-11T11:04:56.212Z,1001.13
2016-05-11T11:05:56.168Z,1001.13
2016-05-11T11:06:56.155Z,1001.17
2016-05-11T11:07:56.080Z,1001.08
2016-05-11T11:08:56.051Z,1001.13
2016-05-11T11:09:56.022Z,1001.14
2016-05-11T11:10:55.962Z,1001.2
2016-05-11T11:11:55.919Z,1001.16
2016-05-11T11:12:55.890Z,1001.13
2016-05-11T11:13:55.845Z,1001.03
2016-05-11T11:14:55.833Z,1001.1
2016-05-11T11:15:58.759Z,1001.06
2016-05-11T11:16:55.712Z,1001.03
2016-05-11T11:17:55.684Z,1001.06
2016-05-11T11:18:55.641Z,1001.06
2016-05-11T11:19:55.690Z,1001.02
2016-05-11T11:20:55.567Z,1000.96
2016-05-11T11:21:55.571Z,1001.03
2016-05-11T11:22:55.479Z,1000.97
2016-05-11T11:23:55.435Z,1000.9
2016-05-11T11:24:55.390Z,1000.93
2016-05-11T11:25:55.534Z,1000.98
2016-05-11T11:26:55.303Z,1001.01
2016-05-11T11:27:58.276Z,1000.94
2016-05-11T11:28:55.230Z,1000.96
2016-05-11T11:29:55.186Z,1000.95
2016-05-11T11:30:55.141Z,1000.95
2016-05-11T11:31:55.113Z,1001
2016-05-11T11:32:55.100Z,1001.01
2016-05-11T11:33:55.025Z,1001
2016-05-11T11:34:54.996Z,1000.97
2016-05-11T11:35:54.936Z,1000.97
2016-05-11T11:36:54.907Z,1000.94
2016-05-11T11:37:57.863Z,1000.89
2016-05-11T11:38:54.819Z,1000.89
2016-05-11T11:39:54.774Z,1000.85
2016-05-11T11:40:54.730Z,1000.84
2016-05-11T11:41:54.702Z,1000.83
2016-05-11T11:42:54.674Z,1000.79
2016-05-11T11:43:54.629Z,1000.74
2016-05-11T11:44:54.569Z,1000.75
2016-05-11T11:45:54.744Z,1000.71
2016-05-11T11:46:54.497Z,1000.72
2016-05-11T11:47:55.390Z,1000.67
2016-05-11T11:48:54.455Z,1000.64
2016-05-11T11:49:54.380Z,1000.61
2016-05-11T11:50:54.335Z,1000.62
2016-05-11T11:51:54.291Z,1000.61
2016-05-11T11:52:54.263Z,1000.66
2016-05-11T11:53:54.218Z,1000.66
2016-05-11T11:54:57.175Z,1000.65
2016-05-11T11:55:54.130Z,1000.62
2016-05-11T11:56:54.102Z,1000.56
2016-05-11T11:57:54.042Z,1000.51
2016-05-11T11:58:54.200Z,1000.46
2016-05-11T11:59:53.970Z,1000.45
2016-05-11T12:00:53.926Z,1000.5
2016-05-11T12:01:53.881Z,1000.53
2016-05-11T12:02:53.852Z,1000.59
2016-05-11T12:03:53.808Z,1000.59
2016-05-11T12:04:53.764Z,1000.55
2016-05-11T12:05:53.719Z,1000.52
2016-05-11T12:06:53.691Z,1000.49
2016-05-11T12:07:53.647Z,1000.47
2016-05-11T12:08:53.619Z,1000.47
2016-05-11T12:09:53.574Z,1000.44